createdAt,value
2023-01-03T05:15:13.831Z,101289.28
2023-01-03T05:17:40.353Z,101292.84
2023-01-03T05:20:25.963Z,101296.94
2023-01-03T05:23:11.576Z,101297.94
2023-01-03T05:25:50.144Z,101297.84
2023-01-03T05:28:18.520Z,101292.63
2023-01-03T05:30:46.856Z,101291.78
2023-01-03T05:33:13.392Z,101297.88
2023-01-03T05:35:40.530Z,101303.09
2023-01-03T05:38:07.088Z,101309.13
2023-01-03T05:40:39.274Z,101310.91
2023-01-03T05:43:07.752Z,101309.13
2023-01-03T05:45:41.142Z,101306.56
2023-01-03T05:48:09.440Z,101299.56
2023-01-03T05:50:38.279Z,101303.03
2023-01-03T05:53:04.701Z,101303.91
2023-01-03T05:55:31.146Z,101303.91
2023-01-03T05:57:57.574Z,101319.59
2023-01-03T06:00:24.096Z,101318.69
2023-01-03T06:02:50.633Z,101319.53
2023-01-03T06:05:17.143Z,101323.97
2023-01-03T06:07:43.563Z,101329.25
2023-01-03T06:10:10.588Z,101331.78
2023-01-03T06:12:37.107Z,101333.56
2023-01-03T06:15:04.418Z,101333.50
2023-01-03T06:17:50.527Z,101347.34
2023-01-03T06:20:17.103Z,101335.06
2023-01-03T06:22:43.684Z,101337.72
2023-01-03T06:25:10.221Z,101338.53
2023-01-03T06:27:36.718Z,101343.06
2023-01-03T06:30:06.736Z,101338.72
2023-01-03T06:32:33.254Z,101337.88
2023-01-03T06:34:59.737Z,101341.34
2023-01-03T06:37:26.232Z,101338.72
2023-01-03T06:39:52.674Z,101345.63
2023-01-03T06:42:39.720Z,101335.25
2023-01-03T06:45:26.014Z,101330.03
2023-01-03T06:48:12.148Z,101343.75
2023-01-03T06:50:59.346Z,101341.09
2023-01-03T06:53:29.062Z,101348.16
2023-01-03T06:55:57.380Z,101348.06
2023-01-03T06:58:24.381Z,101344.56
2023-01-03T07:00:51.078Z,101344.59
2023-01-03T07:03:22.822Z,101352.47
2023-01-03T07:05:49.451Z,101353.41
2023-01-03T07:08:15.972Z,101359.50
2023-01-03T07:10:42.661Z,101356.03
2023-01-03T07:13:35.024Z,101367.41
2023-01-03T07:16:01.593Z,101370.19
2023-01-03T07:18:28.168Z,101364.16
2023-01-03T07:20:54.653Z,101362.41
2023-01-03T07:23:21.447Z,101370.28
2023-01-03T07:25:48.149Z,101370.38
2023-01-03T07:28:15.647Z,101376.44
2023-01-03T07:30:44.769Z,101383.28
2023-01-03T07:33:15.023Z,101385.03
2023-01-03T07:35:42.831Z,101388.50
2023-01-03T07:38:11.242Z,101395.47
2023-01-03T07:40:38.089Z,101394.75
2023-01-03T07:43:23.100Z,101391.44
2023-01-03T07:45:50.912Z,101400.06
2023-01-03T07:48:17.434Z,101399.38
2023-01-03T07:50:43.947Z,101401.09
2023-01-03T07:53:17.061Z,101402.78
2023-01-03T07:55:45.915Z,101408.00
2023-01-03T07:58:13.693Z,101404.66
2023-01-03T08:00:42.686Z,101411.66
2023-01-03T08:03:11.385Z,101421.22
2023-01-03T08:05:40.195Z,101422.06
2023-01-03T08:08:07.781Z,101419.47
2023-01-03T08:11:03.515Z,101426.25
2023-01-03T08:13:29.983Z,101428.16
2023-01-03T08:15:56.909Z,101427.38
2023-01-03T08:18:26.828Z,101428.28
2023-01-03T08:20:55.583Z,101430.94
2023-01-03T08:23:23.012Z,101427.44
2023-01-03T08:25:49.817Z,101436.22
2023-01-03T08:28:16.928Z,101443.19
2023-01-03T08:30:49.317Z,101445.84
2023-01-03T08:37:29.470Z,101435.19
2023-01-03T08:40:01.761Z,101442.25
2023-01-03T08:42:28.715Z,101442.22
2023-01-03T08:45:02.779Z,101447.38
2023-01-03T08:47:29.728Z,101449.25
2023-01-03T08:49:57.889Z,101460.53
2023-01-03T08:52:26.074Z,101462.38
2023-01-03T08:54:56.299Z,101463.00
2023-01-03T08:57:22.866Z,101460.13
2023-01-03T08:59:49.319Z,101455.75
2023-01-03T09:02:15.998Z,101462.50
2023-01-03T09:04:42.729Z,101459.56
2023-01-03T09:07:09.725Z,101454.88
2023-01-03T09:09:36.243Z,101456.84
2023-01-03T09:12:03.015Z,101457.91
2023-01-03T09:14:31.001Z,101456.00
2023-01-03T09:16:57.574Z,101462.41
2023-01-03T09:19:24.119Z,101467.69
2023-01-03T09:21:50.600Z,101465.09
2023-01-03T09:24:45.316Z,101463.41
2023-01-03T09:27:11.735Z,101462.53
2023-01-03T09:29:38.235Z,101458.16
2023-01-03T09:32:05.046Z,101456.44
2023-01-03T09:34:31.601Z,101459.94
2023-01-03T09:36:58.161Z,101465.19
2023-01-03T09:39:24.643Z,101461.72
2023-01-03T09:42:11.196Z,101465.22
2023-01-03T09:44:39.789Z,101473.06
2023-01-03T09:47:09.272Z,101479.06
2023-01-03T09:49:57.812Z,101475.50
2023-01-03T09:52:46.658Z,101473.91
2023-01-03T09:55:49.140Z,101471.34
2023-01-03T09:58:34.735Z,101466.94
2023-01-03T10:01:40.875Z,101466.09
2023-01-03T10:04:07.538Z,101468.63
2023-01-03T10:06:59.514Z,101465.97
2023-01-03T10:09:50.293Z,101462.56
2023-01-03T10:12:28.846Z,101469.59
2023-01-03T10:15:06.136Z,101462.63
2023-01-03T10:17:44.402Z,101453.75
2023-01-03T10:20:33.200Z,101451.22
2023-01-03T10:23:01.310Z,101457.34
2023-01-03T10:25:29.326Z,101459.97
2023-01-03T10:28:12.130Z,101454.72
2023-01-03T10:31:15.721Z,101451.22
2023-01-03T10:33:47.484Z,101459.09
2023-01-03T10:36:17.165Z,101460.81
2023-01-03T10:38:51.613Z,101461.59
2023-01-03T10:41:41.355Z,101459.91
2023-01-03T10:44:22.631Z,101454.53
2023-01-03T10:46:53.599Z,101455.56
2023-01-03T10:49:31.726Z,101447.72
2023-01-03T10:52:03.007Z,101450.34
2023-01-03T10:54:46.607Z,101446.81
2023-01-03T10:57:35.496Z,101441.56
2023-01-03T11:00:02.236Z,101440.72
2023-01-03T11:02:28.953Z,101445.94
2023-01-03T11:05:13.055Z,101441.56
2023-01-03T11:07:54.572Z,101438.97
2023-01-03T11:10:23.042Z,101443.38
2023-01-03T11:12:50.099Z,101444.22
2023-01-03T11:15:38.428Z,101445.94
2023-01-03T11:18:17.375Z,101443.31
2023-01-03T11:21:09.252Z,101441.59
2023-01-03T11:24:04.579Z,101440.72
2023-01-03T11:27:02.623Z,101433.75
2023-01-03T11:29:56.517Z,101430.25
2023-01-03T11:32:44.817Z,101426.72
2023-01-03T11:35:25.205Z,101432.84
2023-01-03T11:38:03.853Z,101432.84
2023-01-03T11:40:52.129Z,101432.84
2023-01-03T11:43:37.050Z,101439.81
2023-01-03T11:46:22.471Z,101429.25
2023-01-03T11:49:11.332Z,101428.41
2023-01-03T11:52:03.645Z,101436.31
2023-01-03T11:54:52.966Z,101432.84
2023-01-03T11:57:19.949Z,101425.75
2023-01-03T12:00:04.185Z,101424.78
2023-01-03T12:03:09.887Z,101416.94
2023-01-03T12:05:44.136Z,101409.06
2023-01-03T12:08:18.195Z,101403.97
2023-01-03T12:11:24.178Z,101399.59
2023-01-03T12:14:11.544Z,101399.53
2023-01-03T12:16:46.924Z,101401.34
2023-01-03T12:19:41.767Z,101404.59
2023-01-03T12:22:16.141Z,101410.75
2023-01-03T12:25:04.411Z,101403.06
2023-01-03T12:27:41.432Z,101404.72
2023-01-03T12:30:40.321Z,101401.31
2023-01-03T12:33:20.095Z,101397.81
2023-01-03T12:35:57.263Z,101397.75
2023-01-03T12:38:36.256Z,101403.94
2023-01-03T12:41:28.244Z,101397.81
2023-01-03T12:44:01.376Z,101396.09
2023-01-03T12:46:36.122Z,101388.06
2023-01-03T12:49:25.739Z,101380.13
2023-01-03T12:51:52.274Z,101374.88
2023-01-03T12:54:18.702Z,101373.69
2023-01-03T12:57:07.039Z,101381.94
2023-01-03T12:59:58.877Z,101375.91
2023-01-03T13:02:50.547Z,101372.16
2023-01-03T13:05:20.455Z,101365.25
2023-01-03T13:07:54.307Z,101367.00
2023-01-03T13:10:28.347Z,101369.75
2023-01-03T13:12:54.785Z,101366.91
2023-01-03T13:15:35.799Z,101361.47
2023-01-03T13:18:21.577Z,101352.59
2023-01-03T13:24:54.221Z,101351.63
2023-01-03T13:27:22.771Z,101345.06
2023-01-03T13:29:49.360Z,101343.63
2023-01-03T13:32:20.985Z,101345.94
2023-01-03T13:34:53.714Z,101348.47
2023-01-03T13:37:22.767Z,101344.78
2023-01-03T13:40:23.183Z,101343.75
2023-01-03T13:43:02.342Z,101348.66
2023-01-03T13:45:31.893Z,101352.25
2023-01-03T13:48:08.554Z,101349.94
2023-01-03T13:50:37.041Z,101343.53
2023-01-03T13:53:09.647Z,101347.94
2023-01-03T13:55:38.165Z,101349.06
2023-01-03T13:58:24.706Z,101351.41
2023-01-03T14:00:52.451Z,101346.97
2023-01-03T14:03:22.180Z,101339.16
2023-01-03T14:06:31.922Z,101332.72
2023-01-03T14:09:27.075Z,101332.25
2023-01-03T14:12:26.822Z,101331.19
2023-01-03T14:14:55.535Z,101336.22
2023-01-03T14:17:33.202Z,101336.28
2023-01-03T14:20:06.041Z,101332.56
2023-01-03T14:22:40.837Z,101345.75
2023-01-03T14:25:08.836Z,101344.78
2023-01-03T14:27:41.696Z,101340.81
2023-01-03T14:30:24.016Z,101345.06
2023-01-03T14:32:54.647Z,101344.06
2023-01-03T14:35:40.671Z,101341.41
2023-01-03T14:38:28.248Z,101342.00
2023-01-03T14:40:58.231Z,101340.97
2023-01-03T14:43:29.232Z,101348.03
2023-01-03T14:45:59.346Z,101339.25
2023-01-03T14:48:28.670Z,101351.63
2023-01-03T14:50:55.869Z,101349.78
2023-01-03T14:53:22.765Z,101344.50
2023-01-03T14:55:53.041Z,101350.72
2023-01-03T14:58:35.800Z,101357.91
2023-01-03T15:01:05.317Z,101354.84
2023-01-03T15:03:39.697Z,101355.59
2023-01-03T15:06:20.232Z,101350.16
2023-01-03T15:08:50.222Z,101346.16
2023-01-03T15:11:26.540Z,101352.31
2023-01-03T15:14:02.247Z,101360.84
2023-01-03T15:16:42.693Z,101355.41
2023-01-03T15:19:26.818Z,101358.09
2023-01-03T15:22:14.002Z,101362.19
2023-01-03T15:24:43.929Z,101365.66
2023-01-03T15:27:38.499Z,101369.13
2023-01-03T15:30:15.315Z,101379.63
2023-01-03T15:32:57.837Z,101361.81
2023-01-03T15:35:32.816Z,101367.38
2023-01-03T15:38:01.504Z,101362.75
2023-01-03T15:40:36.571Z,101366.09
2023-01-03T15:43:22.137Z,101367.78
2023-01-03T15:46:02.853Z,101372.44
2023-01-03T15:48:34.927Z,101373.34
2023-01-03T15:51:02.647Z,101377.19
2023-01-03T15:53:41.009Z,101377.13
2023-01-03T15:56:13.189Z,101377.09
2023-01-03T15:58:54.668Z,101376.31
2023-01-03T16:01:22.296Z,101378.63
2023-01-03T16:03:51.359Z,101373.09
2023-01-03T16:06:18.517Z,101375.66
2023-01-03T16:08:45.780Z,101375.75
2023-01-03T16:11:19.633Z,101373.91
2023-01-03T16:17:24.361Z,101372.22
2023-01-03T16:20:10.646Z,101367.94
2023-01-03T16:23:01.808Z,101365.34
2023-01-03T16:25:54.616Z,101370.66
2023-01-03T16:28:37.377Z,101374.09
2023-01-03T16:31:20.349Z,101372.41
2023-01-03T16:33:49.976Z,101375.09
2023-01-03T16:36:29.745Z,101380.56
2023-01-03T16:38:56.370Z,101390.31
2023-01-03T16:41:23.992Z,101392.00
2023-01-03T16:43:50.663Z,101384.94
2023-01-03T16:46:46.146Z,101390.13
2023-01-03T16:49:12.918Z,101389.28
2023-01-03T16:51:48.981Z,101386.63
2023-01-03T16:54:19.601Z,101387.56
2023-01-03T16:56:47.501Z,101387.56
2023-01-03T16:59:15.527Z,101388.47
2023-01-03T17:01:42.605Z,101391.09
2023-01-03T17:04:09.355Z,101393.88
2023-01-03T17:06:38.500Z,101391.22
2023-01-03T17:09:11.839Z,101391.25
2023-01-03T17:11:38.677Z,101395.63
2023-01-03T17:14:05.245Z,101387.72
2023-01-03T17:16:33.030Z,101390.41
2023-01-03T17:18:59.754Z,101397.34
2023-01-03T17:21:34.964Z,101387.00
2023-01-03T17:24:13.873Z,101396.66
2023-01-03T17:26:40.478Z,101395.72
2023-01-03T17:29:10.792Z,101397.41
2023-01-03T17:31:39.914Z,101392.16
2023-01-03T17:34:21.241Z,101391.31
2023-01-03T17:36:58.243Z,101393.22
2023-01-03T17:39:28.814Z,101399.41
2023-01-03T17:42:20.324Z,101400.34
2023-01-03T17:45:15.096Z,101392.47
2023-01-03T17:48:02.539Z,101391.69
2023-01-03T17:50:35.282Z,101393.44
2023-01-03T18:05:28.716Z,101400.41
2023-01-03T18:14:29.433Z,101402.22
2023-01-03T18:17:50.341Z,101408.34
2023-01-03T18:20:20.322Z,101408.34
2023-01-03T18:25:42.545Z,101417.09
2023-01-03T18:28:14.537Z,101416.22
2023-01-03T18:40:00.147Z,101416.22
2023-01-03T18:53:16.661Z,101423.19
2023-01-03T19:00:46.979Z,101428.50
2023-01-03T19:04:03.097Z,101431.13
2023-01-03T19:24:39.424Z,101410.03
2023-01-03T19:28:04.286Z,101408.34
2023-01-03T20:25:26.000Z,101364.56
2023-01-03T20:27:53.085Z,101361.97
2023-01-03T20:30:24.197Z,101357.63
2023-01-03T20:32:51.798Z,101363.63
2023-01-03T20:38:11.750Z,101369.00
2023-01-03T20:40:39.315Z,101357.63
2023-01-03T20:43:06.191Z,101356.75
2023-01-03T20:45:33.321Z,101360.28
2023-01-03T20:48:00.503Z,101354.19
2023-01-03T20:50:29.082Z,101354.16
2023-01-03T20:52:57.380Z,101346.31
2023-01-03T20:55:26.820Z,101346.31
2023-01-03T20:57:53.762Z,101337.56
2023-01-03T21:00:26.615Z,101335.81
2023-01-03T21:02:56.601Z,101327.94
2023-01-03T21:05:24.046Z,101323.56
2023-01-03T21:08:09.397Z,101327.94
2023-01-03T21:10:41.713Z,101326.22
2023-01-03T21:13:10.048Z,101330.56
2023-01-03T21:15:38.081Z,101327.03
2023-01-03T21:18:06.417Z,101323.59
2023-01-03T21:20:33.826Z,101331.44
2023-01-03T21:23:00.418Z,101333.22
2023-01-03T21:25:31.323Z,101330.59
2023-01-03T21:27:58.079Z,101334.94
2023-01-03T21:30:26.623Z,101326.19
2023-01-03T21:32:53.125Z,101324.44
2023-01-03T21:35:21.813Z,101323.59
2023-01-03T21:37:50.076Z,101322.72
2023-01-03T21:40:22.258Z,101327.97
2023-01-03T21:43:06.139Z,101320.09
2023-01-03T21:45:38.391Z,101319.22
2023-01-03T21:48:09.799Z,101319.22
2023-01-03T21:50:47.560Z,101327.06
2023-01-03T21:53:21.197Z,101313.97
2023-01-03T21:55:49.368Z,101305.22
2023-01-03T21:58:24.635Z,101299.97
2023-01-03T22:00:55.886Z,101305.22
2023-01-03T22:03:42.530Z,101292.13
2023-01-03T22:06:11.537Z,101296.50
2023-01-03T22:08:39.665Z,101292.13
2023-01-03T22:11:07.286Z,101291.25
2023-01-03T22:13:34.665Z,101308.72
2023-01-03T22:16:06.263Z,101310.50
2023-01-03T22:18:33.862Z,101303.47
2023-01-03T22:21:07.006Z,101307.00
2023-01-03T22:23:34.935Z,101302.63
2023-01-03T22:26:18.014Z,101308.69
2023-01-03T22:28:46.470Z,101306.03
2023-01-03T22:31:18.710Z,101311.22
2023-01-03T22:33:48.064Z,101306.97
2023-01-03T22:36:15.599Z,101303.50
2023-01-03T22:38:42.384Z,101306.91
2023-01-03T22:41:11.181Z,101309.56
2023-01-03T22:43:37.812Z,101308.69
2023-01-03T22:46:09.290Z,101308.69
2023-01-03T22:48:35.872Z,101305.19
2023-01-03T22:51:04.639Z,101303.47
2023-01-03T22:53:34.165Z,101304.25
2023-01-03T22:56:01.070Z,101305.97
2023-01-03T22:58:27.572Z,101309.34
